createdAt,value
2019-02-20T00:01:52.095Z,22.80
2019-02-20T00:03:53.552Z,22.30
2019-02-20T00:05:54.391Z,23.87
2019-02-20T00:07:55.243Z,22.77
2019-02-20T00:09:56.094Z,22.53
2019-02-20T00:11:56.941Z,22.00
2019-02-20T00:13:57.786Z,22.33
2019-02-20T00:15:58.660Z,23.57
2019-02-20T00:17:59.601Z,22.53
2019-02-20T00:20:00.445Z,21.83
2019-02-20T00:22:01.388Z,21.63
2019-02-20T00:24:02.335Z,20.90
2019-02-20T00:26:03.232Z,21.43
2019-02-20T00:28:04.064Z,19.57
2019-02-20T00:30:04.917Z,20.53
2019-02-20T00:32:05.736Z,20.03
2019-02-20T00:34:08.218Z,19.90
2019-02-20T00:36:09.228Z,20.23
2019-02-20T00:38:10.083Z,20.53
2019-02-20T00:40:10.929Z,19.97
2019-02-20T00:42:11.760Z,20.13
2019-02-20T00:44:27.848Z,21.80
2019-02-20T00:46:34.023Z,21.57
2019-02-20T00:48:45.509Z,22.40
2019-02-20T00:50:46.767Z,21.70
2019-02-20T00:52:55.775Z,21.37
2019-02-20T00:54:56.961Z,21.37
2019-02-20T00:56:57.807Z,19.93
2019-02-20T00:58:58.938Z,21.53
2019-02-20T01:00:59.759Z,21.07
2019-02-20T01:03:00.617Z,21.13
2019-02-20T01:05:01.441Z,20.53
2019-02-20T01:07:02.402Z,21.03
2019-02-20T01:09:03.969Z,21.27
2019-02-20T01:11:04.800Z,22.63
2019-02-20T01:13:05.648Z,24.23
2019-02-20T01:15:06.491Z,25.53
2019-02-20T01:17:07.377Z,24.70
2019-02-20T01:19:08.192Z,24.03
2019-02-20T01:21:09.020Z,23.37
2019-02-20T01:23:09.863Z,21.87
2019-02-20T01:25:10.711Z,21.90
2019-02-20T01:27:11.553Z,21.03
2019-02-20T01:29:12.372Z,21.30
2019-02-20T01:31:13.205Z,23.13
2019-02-20T01:33:14.048Z,21.63
2019-02-20T01:35:15.224Z,20.57
2019-02-20T01:37:16.102Z,21.93
2019-02-20T01:39:17.236Z,21.57
2019-02-20T01:41:18.168Z,21.20
2019-02-20T01:43:19.032Z,20.87
2019-02-20T01:45:19.856Z,21.30
2019-02-20T01:47:20.971Z,22.07
2019-02-20T01:49:21.832Z,22.27
2019-02-20T01:51:22.660Z,20.83
2019-02-20T01:53:23.520Z,20.53
2019-02-20T01:55:24.392Z,20.97
2019-02-20T01:57:25.223Z,19.87
2019-02-20T01:59:26.044Z,22.83
2019-02-20T02:01:26.905Z,21.20
2019-02-20T02:03:27.734Z,23.13
2019-02-20T02:05:28.560Z,22.50
2019-02-20T02:07:29.408Z,21.20
2019-02-20T02:09:30.244Z,22.13
2019-02-20T02:11:31.098Z,21.93
2019-02-20T02:13:31.935Z,20.87
2019-02-20T02:15:32.758Z,21.27
2019-02-20T02:17:33.604Z,21.90
2019-02-20T02:19:34.440Z,22.03
2019-02-20T02:21:35.309Z,23.77
2019-02-20T02:23:36.154Z,21.17
2019-02-20T02:25:36.970Z,21.57
2019-02-20T02:27:37.829Z,21.93
2019-02-20T02:29:38.656Z,21.30
2019-02-20T02:31:39.933Z,20.97
2019-02-20T02:33:40.771Z,21.97
2019-02-20T02:35:41.609Z,21.67
2019-02-20T02:37:42.432Z,22.20
2019-02-20T02:39:43.543Z,20.80
2019-02-20T02:41:44.925Z,21.70
2019-02-20T02:43:46.075Z,20.90
2019-02-20T02:45:46.909Z,22.10
2019-02-20T02:47:47.740Z,20.67
2019-02-20T02:49:48.599Z,21.43
2019-02-20T02:51:49.428Z,20.20
2019-02-20T02:53:50.264Z,20.10
2019-02-20T02:55:51.104Z,21.20
2019-02-20T02:57:51.945Z,21.23
2019-02-20T02:59:52.767Z,20.20
2019-02-20T03:01:53.617Z,21.37
2019-02-20T03:03:54.787Z,20.77
2019-02-20T03:05:55.979Z,20.50
2019-02-20T03:07:56.811Z,21.43
2019-02-20T03:09:57.662Z,20.77
2019-02-20T03:11:58.845Z,20.23
2019-02-20T03:14:00.076Z,21.80
2019-02-20T03:16:00.929Z,21.30
2019-02-20T03:18:01.754Z,21.10
2019-02-20T03:20:02.600Z,20.17
2019-02-20T03:22:03.440Z,20.90
2019-02-20T03:24:04.385Z,21.70
2019-02-20T03:26:05.234Z,21.07
2019-02-20T03:28:06.061Z,20.90
2019-02-20T03:30:06.919Z,21.20
2019-02-20T03:32:08.098Z,20.43
2019-02-20T03:34:09.225Z,20.40
2019-02-20T03:36:10.151Z,20.27
2019-02-20T03:38:11.000Z,20.47
2019-02-20T03:40:12.152Z,20.60
2019-02-20T03:42:12.974Z,19.93
2019-02-20T03:44:13.817Z,20.37
2019-02-20T03:46:14.668Z,20.97
2019-02-20T03:48:15.506Z,20.20
2019-02-20T03:50:16.334Z,20.17
2019-02-20T03:52:17.189Z,21.20
2019-02-20T03:54:18.020Z,20.23
2019-02-20T03:56:18.856Z,22.33
2019-02-20T03:58:19.704Z,21.50
2019-02-20T04:00:20.537Z,21.97
2019-02-20T04:02:21.389Z,21.53
2019-02-20T04:04:22.225Z,23.43
2019-02-20T04:06:23.062Z,21.83
2019-02-20T04:08:23.909Z,21.20
2019-02-20T04:10:24.740Z,20.97
2019-02-20T04:12:25.580Z,21.37
2019-02-20T04:14:26.424Z,20.97
2019-02-20T04:16:27.272Z,22.67
2019-02-20T04:18:28.126Z,21.73
2019-02-20T04:20:28.957Z,21.03
2019-02-20T04:22:29.832Z,20.97
2019-02-20T04:24:30.673Z,21.10
2019-02-20T04:26:31.610Z,20.33
2019-02-20T04:28:32.457Z,20.53
2019-02-20T04:30:33.285Z,20.37
2019-02-20T04:32:34.117Z,19.87
2019-02-20T04:34:34.964Z,21.10
2019-02-20T04:36:35.800Z,21.43
2019-02-20T04:38:36.633Z,22.10
2019-02-20T04:40:37.478Z,21.03
2019-02-20T04:42:38.401Z,22.57
2019-02-20T04:44:39.370Z,21.33
2019-02-20T04:46:40.201Z,22.50
2019-02-20T04:48:41.048Z,20.73
2019-02-20T04:50:41.900Z,21.50
2019-02-20T04:52:42.756Z,21.70
2019-02-20T04:54:43.581Z,20.57
2019-02-20T04:56:44.437Z,20.57
2019-02-20T04:58:45.264Z,21.07
2019-02-20T05:00:46.142Z,21.73
2019-02-20T05:02:47.043Z,21.17
2019-02-20T05:04:47.889Z,21.00
2019-02-20T05:06:49.093Z,21.57
2019-02-20T05:08:49.951Z,21.77
2019-02-20T05:10:50.786Z,21.70
2019-02-20T05:12:51.632Z,20.13
2019-02-20T05:14:52.750Z,20.93
2019-02-20T05:16:53.580Z,21.33
2019-02-20T05:18:54.403Z,22.13
2019-02-20T05:20:55.545Z,20.90
2019-02-20T05:22:56.373Z,20.63
2019-02-20T05:24:57.522Z,22.37
2019-02-20T05:26:58.357Z,20.73
2019-02-20T05:28:59.196Z,21.73
2019-02-20T05:31:00.054Z,23.10
2019-02-20T05:33:00.928Z,21.37
2019-02-20T05:35:01.869Z,21.87
2019-02-20T05:37:02.729Z,22.33
2019-02-20T05:39:04.250Z,21.20
2019-02-20T05:41:05.089Z,22.33
2019-02-20T05:43:05.924Z,22.37
2019-02-20T05:45:06.777Z,21.33
2019-02-20T05:47:07.602Z,20.83
2019-02-20T05:49:08.458Z,22.20
2019-02-20T05:51:09.289Z,22.27
2019-02-20T05:53:10.122Z,22.50
2019-02-20T05:55:10.971Z,21.30
2019-02-20T05:57:11.806Z,23.43
2019-02-20T05:59:12.653Z,22.70
2019-02-20T06:01:13.489Z,21.83
2019-02-20T06:03:14.341Z,21.30
2019-02-20T06:05:15.173Z,20.87
2019-02-20T06:07:16.326Z,21.60
2019-02-20T06:09:17.181Z,21.00
2019-02-20T06:11:18.027Z,20.63
2019-02-20T06:13:18.868Z,21.87
2019-02-20T06:15:19.704Z,21.97
2019-02-20T06:17:20.537Z,22.43
2019-02-20T06:19:21.369Z,21.27
2019-02-20T06:21:22.465Z,22.40
2019-02-20T06:23:23.336Z,22.70
2019-02-20T06:25:24.178Z,22.67
2019-02-20T06:27:25.016Z,23.07
2019-02-20T06:29:25.869Z,23.47
2019-02-20T06:31:26.701Z,24.40
2019-02-20T06:33:27.539Z,25.07
2019-02-20T06:35:28.736Z,24.20
2019-02-20T06:37:29.585Z,25.13
2019-02-20T06:39:30.421Z,26.73
2019-02-20T06:41:38.671Z,26.80
2019-02-20T06:43:34.021Z,26.00
2019-02-20T06:45:34.842Z,26.10
2019-02-20T06:47:35.978Z,25.50
2019-02-20T06:49:36.814Z,25.90
2019-02-20T06:51:37.657Z,25.67
2019-02-20T06:53:38.524Z,25.53
2019-02-20T06:55:39.389Z,25.87
2019-02-20T06:57:40.229Z,28.33
2019-02-20T06:59:41.094Z,27.57
2019-02-20T07:01:41.925Z,27.07
2019-02-20T07:03:42.772Z,27.37
2019-02-20T07:05:43.627Z,28.00
2019-02-20T07:07:44.480Z,28.47
2019-02-20T07:09:45.313Z,26.57
2019-02-20T07:11:46.140Z,27.33
2019-02-20T07:13:46.988Z,26.77
2019-02-20T07:15:47.823Z,27.83
2019-02-20T07:17:48.992Z,27.57
2019-02-20T07:19:50.064Z,26.90
2019-02-20T07:21:50.920Z,27.77
2019-02-20T07:23:51.763Z,26.90
2019-02-20T07:25:52.908Z,29.37
2019-02-20T07:27:53.768Z,28.87
2019-02-20T07:29:54.588Z,27.43
2019-02-20T07:31:55.452Z,27.37
2019-02-20T07:33:56.568Z,26.50
2019-02-20T07:35:57.407Z,28.03
2019-02-20T07:37:58.274Z,26.27
2019-02-20T07:39:59.119Z,32.43
2019-02-20T07:41:59.944Z,27.87
2019-02-20T07:44:00.809Z,26.77
2019-02-20T07:46:01.678Z,25.20
2019-02-20T07:48:02.519Z,24.77
2019-02-20T07:50:03.371Z,24.70
2019-02-20T07:52:04.200Z,23.97
2019-02-20T07:54:05.048Z,26.90
2019-02-20T07:56:05.889Z,26.33
2019-02-20T07:58:06.744Z,26.67
2019-02-20T08:00:07.592Z,26.23
2019-02-20T08:02:08.424Z,26.13
2019-02-20T08:04:09.278Z,25.83
2019-02-20T08:06:10.109Z,24.73
2019-02-20T08:08:10.945Z,25.10
2019-02-20T08:10:11.789Z,24.80
2019-02-20T08:12:12.629Z,25.33
2019-02-20T08:14:13.452Z,24.73
2019-02-20T08:16:14.313Z,25.43
2019-02-20T08:18:15.180Z,24.50
2019-02-20T08:20:16.335Z,24.37
2019-02-20T08:22:17.528Z,24.40
2019-02-20T08:24:18.417Z,23.77
2019-02-20T08:26:19.253Z,23.93
2019-02-20T08:28:20.105Z,23.20
2019-02-20T08:30:20.950Z,23.43
2019-02-20T08:32:21.776Z,22.23
2019-02-20T08:34:22.894Z,22.87
2019-02-20T08:36:23.724Z,21.70
2019-02-20T08:38:24.565Z,21.83
2019-02-20T08:40:25.420Z,22.30
2019-02-20T08:42:26.292Z,22.90
2019-02-20T08:44:27.124Z,23.47
2019-02-20T08:46:27.971Z,22.60
2019-02-20T08:48:28.807Z,21.43
2019-02-20T08:50:29.640Z,21.17
2019-02-20T08:52:30.480Z,22.43
2019-02-20T08:54:31.320Z,21.33
2019-02-20T08:56:32.178Z,22.30
2019-02-20T08:58:32.997Z,22.50
2019-02-20T09:00:33.821Z,22.20
2019-02-20T09:02:34.690Z,22.37
2019-02-20T09:04:35.785Z,22.47
2019-02-20T09:06:36.616Z,21.97
2019-02-20T09:08:37.778Z,22.57
2019-02-20T09:10:38.898Z,23.37
2019-02-20T09:12:40.052Z,22.43
2019-02-20T09:14:40.896Z,21.43
2019-02-20T09:16:41.731Z,20.93
2019-02-20T09:18:42.580Z,20.27
2019-02-20T09:20:43.413Z,20.53
2019-02-20T09:22:44.567Z,21.10
2019-02-20T09:24:45.409Z,21.17
2019-02-20T09:26:46.241Z,21.10
2019-02-20T09:28:47.589Z,21.57
2019-02-20T09:30:48.449Z,12.33
2019-02-20T09:32:49.290Z,19.07
2019-02-20T09:34:50.174Z,21.17
2019-02-20T09:36:51.385Z,20.50
2019-02-20T09:38:52.221Z,21.27
2019-02-20T09:40:53.065Z,21.43
2019-02-20T09:42:53.898Z,21.43
2019-02-20T09:44:54.765Z,22.67
2019-02-20T09:46:55.865Z,21.23
2019-02-20T09:48:56.711Z,21.60
2019-02-20T09:50:57.591Z,22.20
2019-02-20T09:52:58.612Z,21.67
2019-02-20T09:54:59.432Z,21.90
2019-02-20T09:57:00.386Z,20.97
2019-02-20T09:59:01.292Z,22.07
2019-02-20T10:01:03.016Z,21.47
2019-02-20T10:03:04.099Z,20.70
2019-02-20T10:05:04.977Z,20.60
2019-02-20T10:07:06.117Z,19.43
2019-02-20T10:09:06.965Z,19.93
2019-02-20T10:11:07.819Z,18.37
2019-02-20T10:13:10.947Z,19.57
2019-02-20T10:15:11.486Z,17.57
2019-02-20T10:17:12.345Z,17.77
2019-02-20T10:19:13.172Z,17.77
2019-02-20T10:21:14.030Z,17.50
2019-02-20T10:23:14.886Z,16.77
2019-02-20T10:25:15.729Z,17.07
2019-02-20T10:27:16.576Z,16.17
2019-02-20T10:29:17.411Z,17.73
2019-02-20T10:31:18.265Z,17.70
2019-02-20T10:33:19.126Z,17.43
2019-02-20T10:35:19.969Z,17.33
2019-02-20T10:37:20.821Z,17.20
2019-02-20T10:39:21.735Z,17.50
2019-02-20T10:41:22.589Z,17.00
2019-02-20T10:43:23.452Z,17.10
2019-02-20T10:45:24.317Z,16.93
2019-02-20T10:47:25.509Z,17.50
2019-02-20T10:49:26.679Z,18.20
2019-02-20T10:51:27.531Z,18.57
2019-02-20T10:53:28.383Z,17.83
2019-02-20T10:55:29.484Z,17.43
2019-02-20T10:57:30.352Z,17.53
2019-02-20T10:59:31.776Z,16.03
2019-02-20T11:01:32.909Z,14.87
2019-02-20T11:03:33.769Z,15.97
2019-02-20T11:05:34.629Z,14.73
2019-02-20T11:07:35.479Z,12.97
2019-02-20T11:09:36.311Z,13.13
2019-02-20T11:11:37.441Z,12.73
2019-02-20T11:13:38.634Z,10.47
2019-02-20T11:15:39.605Z,12.77
2019-02-20T11:17:40.557Z,9.50
2019-02-20T11:19:41.741Z,8.20
2019-02-20T11:21:42.585Z,8.47
2019-02-20T11:23:43.464Z,7.90
2019-02-20T11:25:44.674Z,7.77
2019-02-20T11:27:45.519Z,8.13
2019-02-20T11:29:46.354Z,7.90
2019-02-20T11:31:47.233Z,8.17
2019-02-20T11:33:48.074Z,7.07
2019-02-20T11:35:48.924Z,7.90
2019-02-20T11:37:50.057Z,6.87
2019-02-20T11:39:50.909Z,6.70
2019-02-20T11:41:51.745Z,6.90
2019-02-20T11:43:52.599Z,6.43
2019-02-20T11:45:53.696Z,5.90
2019-02-20T11:47:54.556Z,6.87
2019-02-20T11:49:55.497Z,6.03
2019-02-20T11:51:56.920Z,5.93
2019-02-20T11:53:57.792Z,5.23
2019-02-20T11:55:58.641Z,5.40
2019-02-20T11:58:00.983Z,6.10
2019-02-20T12:00:02.202Z,7.13
2019-02-20T12:02:03.044Z,7.00
2019-02-20T12:04:03.892Z,6.93
2019-02-20T12:06:04.731Z,7.30
2019-02-20T12:08:06.140Z,7.40
2019-02-20T12:10:07.084Z,7.40
2019-02-20T12:12:09.407Z,7.15
2019-02-20T12:14:10.489Z,7.27
2019-02-20T12:16:11.321Z,7.63
2019-02-20T12:18:17.430Z,7.30
2019-02-20T12:20:14.912Z,7.60
2019-02-20T12:22:15.777Z,7.23
2019-02-20T12:24:16.640Z,8.07
2019-02-20T12:26:17.477Z,7.90
2019-02-20T12:28:18.341Z,8.00
2019-02-20T12:30:19.198Z,8.03
2019-02-20T12:32:20.039Z,9.20
2019-02-20T12:34:20.902Z,9.17
2019-02-20T12:36:21.868Z,8.53
2019-02-20T12:38:22.752Z,8.83
2019-02-20T12:40:23.628Z,8.50
2019-02-20T12:42:24.452Z,8.33
2019-02-20T12:44:25.280Z,8.20
2019-02-20T12:46:26.124Z,8.00
2019-02-20T12:48:26.969Z,7.67
2019-02-20T12:50:27.811Z,7.70
2019-02-20T12:52:28.709Z,7.50
2019-02-20T12:54:29.548Z,6.73
2019-02-20T12:56:30.668Z,7.87
2019-02-20T12:58:31.661Z,7.47
2019-02-20T13:00:32.504Z,7.40
2019-02-20T13:02:33.345Z,6.23
2019-02-20T13:04:34.233Z,6.93
2019-02-20T13:06:36.161Z,6.77
2019-02-20T13:08:37.005Z,6.67
2019-02-20T13:10:37.950Z,6.03
2019-02-20T13:12:38.802Z,6.57
2019-02-20T13:14:39.649Z,6.20
2019-02-20T13:16:40.481Z,6.17
2019-02-20T13:18:41.310Z,6.70
2019-02-20T13:20:42.336Z,6.97
2019-02-20T13:22:43.246Z,6.67
2019-02-20T13:24:44.096Z,6.43
2019-02-20T13:26:52.914Z,6.10
2019-02-20T13:28:48.153Z,6.03
2019-02-20T13:30:49.005Z,6.10
2019-02-20T13:32:51.022Z,5.83
2019-02-20T13:34:52.007Z,6.53
2019-02-20T13:36:52.872Z,6.30
2019-02-20T13:38:53.800Z,6.20
2019-02-20T13:40:54.920Z,5.83
2019-02-20T13:42:56.063Z,6.63
2019-02-20T13:44:56.942Z,6.60
2019-02-20T13:46:57.786Z,6.63
2019-02-20T13:48:58.646Z,6.30
2019-02-20T13:50:59.787Z,6.53
2019-02-20T13:53:00.652Z,7.17
2019-02-20T13:55:01.929Z,7.33
2019-02-20T13:57:02.845Z,7.03
2019-02-20T13:59:03.680Z,7.40
2019-02-20T14:01:04.600Z,7.07
2019-02-20T14:03:05.694Z,6.70
2019-02-20T14:05:06.581Z,6.83
2019-02-20T14:07:07.631Z,6.77
2019-02-20T14:09:08.676Z,7.13
2019-02-20T14:11:09.592Z,7.33
2019-02-20T14:13:10.644Z,7.47
2019-02-20T14:15:11.496Z,7.53
2019-02-20T14:17:12.509Z,7.40
2019-02-20T14:19:13.536Z,6.77
2019-02-20T14:21:14.402Z,7.90
2019-02-20T14:23:15.265Z,7.77
2019-02-20T14:25:16.113Z,7.47
2019-02-20T14:27:17.344Z,8.07
2019-02-20T14:29:18.611Z,7.87
2019-02-20T14:31:19.479Z,7.87
2019-02-20T14:33:20.511Z,7.60
2019-02-20T14:35:21.362Z,7.70
2019-02-20T14:37:22.194Z,7.53
2019-02-20T14:39:23.208Z,8.07
2019-02-20T14:41:24.036Z,8.53
2019-02-20T14:43:24.912Z,8.67
2019-02-20T14:45:25.753Z,7.93
2019-02-20T14:47:26.585Z,8.17
2019-02-20T14:49:27.756Z,7.93
2019-02-20T14:51:28.902Z,8.63
2019-02-20T14:53:29.780Z,8.17
2019-02-20T14:55:30.972Z,8.30
2019-02-20T14:57:31.826Z,8.53
2019-02-20T14:59:32.666Z,8.73
2019-02-20T15:01:33.772Z,8.87
2019-02-20T15:03:34.639Z,8.60
2019-02-20T15:05:35.472Z,8.80
2019-02-20T15:07:36.328Z,8.40
2019-02-20T15:09:37.164Z,8.27
2019-02-20T15:11:38.030Z,9.20
2019-02-20T15:13:38.892Z,8.97
2019-02-20T15:15:39.720Z,9.17
2019-02-20T15:17:40.561Z,8.63
2019-02-20T15:19:41.433Z,8.90
2019-02-20T15:21:42.724Z,9.17
2019-02-20T15:23:43.837Z,9.00
2019-02-20T15:25:44.717Z,8.97
2019-02-20T15:27:45.548Z,9.40
2019-02-20T15:29:46.381Z,9.27
2019-02-20T15:31:47.521Z,8.13
2019-02-20T15:33:48.353Z,8.67
2019-02-20T15:35:49.222Z,9.20
2019-02-20T15:37:50.528Z,10.00
2019-02-20T15:39:51.373Z,9.27
2019-02-20T15:41:52.244Z,9.77
2019-02-20T15:43:53.086Z,9.83
2019-02-20T15:45:53.930Z,9.50
2019-02-20T15:47:54.783Z,9.43
2019-02-20T15:49:55.632Z,11.67
2019-02-20T15:51:56.498Z,12.27
2019-02-20T15:53:57.336Z,11.10
2019-02-20T15:55:58.189Z,11.07
2019-02-20T15:57:59.032Z,10.83
2019-02-20T15:59:59.888Z,12.13
2019-02-20T16:02:00.718Z,12.50
2019-02-20T16:04:01.561Z,11.33
2019-02-20T16:06:02.412Z,10.90
2019-02-20T16:08:03.443Z,11.73
2019-02-20T16:10:06.669Z,12.10
2019-02-20T16:12:07.597Z,11.53
2019-02-20T16:14:08.428Z,11.13
2019-02-20T16:16:09.649Z,11.57
2019-02-20T16:18:10.746Z,10.40
2019-02-20T16:20:11.881Z,10.90
2019-02-20T16:22:12.738Z,10.83
2019-02-20T16:24:13.584Z,11.20
2019-02-20T16:26:14.431Z,10.87
2019-02-20T16:28:15.260Z,10.47
2019-02-20T16:30:16.297Z,10.70
2019-02-20T16:32:17.128Z,11.00
2019-02-20T16:34:17.989Z,11.00
2019-02-20T16:36:18.901Z,11.33
2019-02-20T16:38:19.937Z,10.97
2019-02-20T16:40:20.795Z,11.23
2019-02-20T16:42:22.076Z,11.20
2019-02-20T16:44:22.938Z,11.10
2019-02-20T16:46:23.790Z,11.20
2019-02-20T16:48:24.645Z,10.10
2019-02-20T16:50:25.514Z,10.67
2019-02-20T16:52:26.344Z,9.70
2019-02-20T16:54:27.209Z,10.47
2019-02-20T16:56:28.272Z,10.03
2019-02-20T16:58:29.540Z,10.50
2019-02-20T17:00:30.406Z,9.73
2019-02-20T17:02:31.262Z,9.10
2019-02-20T17:04:32.485Z,8.70
2019-02-20T17:06:33.349Z,9.33
2019-02-20T17:08:35.564Z,9.90
2019-02-20T17:10:36.545Z,9.27
2019-02-20T17:12:37.406Z,10.13
2019-02-20T17:14:38.244Z,9.87
2019-02-20T17:16:39.099Z,10.78
2019-02-20T17:18:39.980Z,10.07
2019-02-20T17:20:40.847Z,9.80
2019-02-20T17:22:41.677Z,10.93
2019-02-20T17:24:42.613Z,9.93
2019-02-20T17:26:43.462Z,10.10
2019-02-20T17:28:44.604Z,12.00
2019-02-20T17:30:45.457Z,10.90
2019-02-20T17:32:46.299Z,11.90
2019-02-20T17:34:47.133Z,12.87
2019-02-20T17:36:47.996Z,13.67
2019-02-20T17:38:48.833Z,12.87
2019-02-20T17:40:49.686Z,13.40
2019-02-20T17:42:50.589Z,13.53
2019-02-20T17:44:51.443Z,14.13
2019-02-20T17:46:52.327Z,12.60
2019-02-20T17:48:53.206Z,13.53
2019-02-20T17:50:54.064Z,14.03
2019-02-20T17:52:55.095Z,14.27
2019-02-20T17:54:56.440Z,13.63
2019-02-20T17:56:57.483Z,13.57
2019-02-20T17:58:58.365Z,15.80
2019-02-20T18:01:00.549Z,14.67
2019-02-20T18:03:01.430Z,13.57
2019-02-20T18:05:02.300Z,14.00
2019-02-20T18:07:03.176Z,13.60
2019-02-20T18:09:04.346Z,15.03
2019-02-20T18:11:05.249Z,14.43
2019-02-20T18:13:06.123Z,13.97
2019-02-20T18:15:06.947Z,13.60
2019-02-20T18:17:07.796Z,15.00
2019-02-20T18:19:08.635Z,16.00
2019-02-20T18:21:09.484Z,14.53
2019-02-20T18:23:10.356Z,15.23
2019-02-20T18:25:11.233Z,15.07
2019-02-20T18:27:12.108Z,14.20
2019-02-20T18:29:12.940Z,13.97
2019-02-20T18:31:13.780Z,13.00
2019-02-20T18:33:14.635Z,14.10
2019-02-20T18:35:15.523Z,13.20
2019-02-20T18:37:16.631Z,13.80
2019-02-20T18:39:17.511Z,13.10
2019-02-20T18:41:18.372Z,12.53
2019-02-20T18:43:19.294Z,12.40
2019-02-20T18:45:20.190Z,12.50
2019-02-20T18:47:21.145Z,11.90
2019-02-20T18:49:22.350Z,11.27
2019-02-20T18:51:23.205Z,11.23
2019-02-20T18:53:24.039Z,11.60
2019-02-20T18:55:24.877Z,12.97
2019-02-20T18:57:25.807Z,11.83
2019-02-20T18:59:26.733Z,12.07
2019-02-20T19:01:27.585Z,12.37
2019-02-20T19:03:28.424Z,11.70
2019-02-20T19:05:29.277Z,11.57
2019-02-20T19:07:30.115Z,11.37
2019-02-20T19:09:30.966Z,11.70
2019-02-20T19:11:31.832Z,12.60
2019-02-20T19:13:32.791Z,13.60
2019-02-20T19:15:33.704Z,13.60
2019-02-20T19:17:34.536Z,14.40
2019-02-20T19:19:35.384Z,14.80
2019-02-20T19:21:36.759Z,15.03
2019-02-20T19:23:37.777Z,14.87
2019-02-20T19:25:38.712Z,13.50
2019-02-20T19:27:39.911Z,14.93
2019-02-20T19:29:40.780Z,15.07
2019-02-20T19:31:41.643Z,14.57
2019-02-20T19:33:42.843Z,14.57
2019-02-20T19:35:43.829Z,15.40
2019-02-20T19:37:44.665Z,15.87
2019-02-20T19:39:45.610Z,15.93
2019-02-20T19:41:46.447Z,16.03
2019-02-20T19:43:47.319Z,16.17
2019-02-20T19:45:48.229Z,16.43
2019-02-20T19:47:50.498Z,16.30
2019-02-20T19:49:51.489Z,15.77
2019-02-20T19:51:52.332Z,16.67
2019-02-20T19:53:53.234Z,16.00
2019-02-20T19:55:54.078Z,15.23
2019-02-20T19:57:54.937Z,14.83
2019-02-20T19:59:55.949Z,16.10
2019-02-20T20:01:56.953Z,16.10
2019-02-20T20:03:57.797Z,16.00
2019-02-20T20:05:58.663Z,16.00
2019-02-20T20:07:59.581Z,16.60
2019-02-20T20:10:00.462Z,16.97
2019-02-20T20:12:01.342Z,17.07
2019-02-20T20:14:02.276Z,18.40
2019-02-20T20:16:03.463Z,19.00
2019-02-20T20:18:04.463Z,18.17
2019-02-20T20:20:05.334Z,17.40
2019-02-20T20:22:06.245Z,17.93
2019-02-20T20:24:07.084Z,19.20
2019-02-20T20:26:07.954Z,19.93
2019-02-20T20:28:08.817Z,20.27
2019-02-20T20:30:09.955Z,20.23
2019-02-20T20:32:13.369Z,18.63
2019-02-20T20:34:14.211Z,19.63
2019-02-20T20:36:15.132Z,20.33
2019-02-20T20:38:16.256Z,19.40
2019-02-20T20:40:17.089Z,19.83
2019-02-20T20:42:17.927Z,20.23
2019-02-20T20:44:27.784Z,20.00
2019-02-20T20:46:21.561Z,18.53
2019-02-20T20:48:22.400Z,16.33
2019-02-20T20:50:23.259Z,17.33
2019-02-20T20:52:24.096Z,17.93
2019-02-20T20:54:24.950Z,17.70
2019-02-20T20:56:25.795Z,17.67
2019-02-20T20:58:26.632Z,16.47
2019-02-20T21:00:27.563Z,16.80
2019-02-20T21:02:28.431Z,15.73
2019-02-20T21:04:29.788Z,15.33
2019-02-20T21:06:30.825Z,16.60
2019-02-20T21:08:31.689Z,17.73
2019-02-20T21:10:32.529Z,17.60
2019-02-20T21:12:33.402Z,18.30
2019-02-20T21:14:34.256Z,18.90
2019-02-20T21:16:35.444Z,17.47
2019-02-20T21:18:36.318Z,16.33
2019-02-20T21:20:37.145Z,17.07
2019-02-20T21:22:38.029Z,17.10
2019-02-20T21:24:39.184Z,17.67
2019-02-20T21:26:40.052Z,17.27
2019-02-20T21:28:40.913Z,17.83
2019-02-20T21:30:41.753Z,17.10
2019-02-20T21:32:42.602Z,17.33
2019-02-20T21:34:43.505Z,17.13
2019-02-20T21:36:45.198Z,17.43
2019-02-20T21:38:46.156Z,18.07
2019-02-20T21:40:47.060Z,18.90
2019-02-20T21:42:47.978Z,17.67
2019-02-20T21:44:48.818Z,19.03
2019-02-20T21:46:49.667Z,20.07
2019-02-20T21:48:50.833Z,22.60
2019-02-20T21:50:51.717Z,21.43
2019-02-20T21:52:52.575Z,21.37
2019-02-20T21:54:53.474Z,21.40
2019-02-20T21:56:54.308Z,21.07
2019-02-20T21:58:55.162Z,20.90
2019-02-20T22:00:56.009Z,18.53
2019-02-20T22:02:56.867Z,19.00
2019-02-20T22:04:57.708Z,18.43
2019-02-20T22:06:58.847Z,17.57
2019-02-20T22:08:59.700Z,17.17
2019-02-20T22:11:00.528Z,16.77
2019-02-20T22:13:01.372Z,16.77
2019-02-20T22:15:02.229Z,15.70
2019-02-20T22:17:03.068Z,16.87
2019-02-20T22:19:04.264Z,16.40
2019-02-20T22:21:05.196Z,16.50
2019-02-20T22:23:06.060Z,17.50
2019-02-20T22:25:06.885Z,21.97
2019-02-20T22:27:07.883Z,21.40
2019-02-20T22:29:08.723Z,22.23
2019-02-20T22:31:10.042Z,20.20
2019-02-20T22:33:10.921Z,19.70
2019-02-20T22:35:11.756Z,22.97
2019-02-20T22:37:12.616Z,22.23
2019-02-20T22:39:13.449Z,24.87
2019-02-20T22:41:14.276Z,25.77
2019-02-20T22:43:15.134Z,24.47
2019-02-20T22:45:15.970Z,23.27
2019-02-20T22:47:17.876Z,25.30
2019-02-20T22:49:18.804Z,25.83
2019-02-20T22:51:19.760Z,25.10
2019-02-20T22:53:20.680Z,25.50
2019-02-20T22:55:21.646Z,23.20
2019-02-20T22:57:22.476Z,22.90
2019-02-20T22:59:23.380Z,22.37
2019-02-20T23:01:26.117Z,20.67
2019-02-20T23:03:27.299Z,19.80
2019-02-20T23:05:28.256Z,19.13
2019-02-20T23:07:29.357Z,17.40
2019-02-20T23:09:30.271Z,18.07
2019-02-20T23:11:31.144Z,18.90
2019-02-20T23:13:31.983Z,19.80
2019-02-20T23:15:33.098Z,18.63
2019-02-20T23:17:33.957Z,19.23
2019-02-20T23:19:34.928Z,19.10
2019-02-20T23:21:35.771Z,20.83
2019-02-20T23:23:36.616Z,21.77
2019-02-20T23:25:37.740Z,22.40
2019-02-20T23:27:38.582Z,22.77
2019-02-20T23:29:39.427Z,22.17
2019-02-20T23:31:40.270Z,22.67
2019-02-20T23:33:41.106Z,22.10
2019-02-20T23:35:41.951Z,22.50
2019-02-20T23:37:42.793Z,20.53
2019-02-20T23:39:43.636Z,19.93
2019-02-20T23:41:44.473Z,19.67
2019-02-20T23:43:45.304Z,21.33
2019-02-20T23:45:46.143Z,21.20
2019-02-20T23:47:47.085Z,21.23
2019-02-20T23:49:47.933Z,21.43
2019-02-20T23:51:48.789Z,21.77
2019-02-20T23:53:49.689Z,22.97
2019-02-20T23:55:50.536Z,22.40
2019-02-20T23:57:51.377Z,23.27
2019-02-20T23:59:52.216Z,22.03
